Time;durP1;ratioP1;P1;durP2;ratioP2;P2;SDS_P1;SDS_P2;PMS_P1;PMS_P2;Temp;Humidity;BMP_temperature;BMP_pressure;BME280_temperature;BME280_humidity;BME280_pressure;Samples;Min_cycle;Max_cycle;Signal;HPM_P1;HPM_P2
2024/02/25 00:01:15;;;;;;;10.05;8.30;;;6.30;93.90;;;;;;4966013;28;20433;-84
2024/02/25 00:03:41;;;;;;;11.35;8.80;;;6.30;94.10;;;;;;4974152;28;20023;-82
2024/02/25 00:06:07;;;;;;;11.88;8.82;;;6.30;94.10;;;;;;4965267;28;20446;-80
2024/02/25 00:08:32;;;;;;;12.98;9.73;;;6.20;94.20;;;;;;4958820;28;20440;-84
2024/02/25 00:11:01;;;;;;;13.48;10.18;;;6.20;94.40;;;;;;4972558;28;20085;-84
2024/02/25 00:13:26;;;;;;;12.25;10.18;;;6.20;94.60;;;;;;4981921;28;20409;-82
2024/02/25 00:15:52;;;;;;;12.13;9.77;;;6.20;94.50;;;;;;4980322;28;20699;-83
2024/02/25 00:18:18;;;;;;;12.10;10.07;;;6.20;94.60;;;;;;4983232;28;20122;-84
2024/02/25 00:20:44;;;;;;;12.52;10.20;;;6.20;94.60;;;;;;4977118;28;20058;-81
2024/02/25 00:23:09;;;;;;;12.38;9.50;;;6.20;94.60;;;;;;4981885;28;20057;-84
2024/02/25 00:25:38;;;;;;;12.45;10.50;;;6.20;94.50;;;;;;4977666;28;20038;-82
2024/02/25 00:28:04;;;;;;;13.48;9.65;;;6.20;94.50;;;;;;4978677;28;20331;-83
2024/02/25 00:30:30;;;;;;;12.13;9.63;;;6.20;94.50;;;;;;4978846;28;20077;-82
2024/02/25 00:32:56;;;;;;;13.77;10.15;;;6.10;94.50;;;;;;4979802;28;20034;-80
2024/02/25 00:35:21;;;;;;;12.38;9.65;;;6.10;94.60;;;;;;4969994;28;20035;-85
2024/02/25 00:37:47;;;;;;;12.45;10.43;;;6.10;94.60;;;;;;4961289;28;20031;-85
2024/02/25 00:40:14;;;;;;;12.10;10.57;;;6.10;94.70;;;;;;4962473;28;20132;-82
2024/02/25 00:42:40;;;;;;;13.48;10.45;;;6.10;94.70;;;;;;4980090;28;20033;-82
2024/02/25 00:45:06;;;;;;;12.68;10.77;;;6.10;94.80;;;;;;4976262;28;20031;-83
2024/02/25 00:47:33;;;;;;;12.68;10.95;;;6.10;94.80;;;;;;4979846;28;20041;-80
2024/02/25 00:50:02;;;;;;;13.70;10.73;;;6.10;94.80;;;;;;4974854;28;20073;-82
2024/02/25 00:52:31;;;;;;;13.57;11.00;;;6.10;94.90;;;;;;4978872;28;20133;-85
2024/02/25 00:54:58;;;;;;;13.82;11.27;;;6.10;94.90;;;;;;4980950;28;20034;-81
2024/02/25 00:57:23;;;;;;;14.55;11.45;;;6.10;94.90;;;;;;4978740;28;20153;-82
2024/02/25 00:59:49;;;;;;;14.77;11.48;;;6.10;95.00;;;;;;4979896;28;20045;-83
2024/02/25 01:02:15;;;;;;;14.18;11.85;;;6.10;95.00;;;;;;4980357;28;20042;-81
2024/02/25 01:04:40;;;;;;;14.82;11.10;;;6.20;95.10;;;;;;4973514;28;20050;-83
2024/02/25 01:07:06;;;;;;;15.07;11.77;;;6.20;95.10;;;;;;4980164;28;20030;-80
2024/02/25 01:09:31;;;;;;;16.77;11.98;;;6.20;95.10;;;;;;4981863;28;20516;-84
2024/02/25 01:12:00;;;;;;;15.40;12.13;;;6.30;95.00;;;;;;4960893;28;20085;-81
2024/02/25 01:14:26;;;;;;;16.20;12.77;;;6.30;95.00;;;;;;4953510;28;20050;-79
2024/02/25 01:16:52;;;;;;;18.60;13.73;;;6.30;95.00;;;;;;4979424;28;20034;-81
2024/02/25 01:19:17;;;;;;;16.45;12.80;;;6.30;95.00;;;;;;4980527;28;20061;-84
2024/02/25 01:21:47;;;;;;;15.25;12.82;;;6.30;95.00;;;;;;4973594;28;20106;-84
2024/02/25 01:24:12;;;;;;;15.60;12.82;;;6.30;95.00;;;;;;4957239;28;20019;-81
2024/02/25 01:26:42;;;;;;;13.90;12.10;;;6.30;95.00;;;;;;4982694;28;20486;-85
2024/02/25 01:29:08;;;;;;;16.08;12.45;;;6.40;95.00;;;;;;4973969;28;20087;-81
2024/02/25 01:31:40;;;;;;;16.55;12.77;;;6.50;94.90;;;;;;4975997;28;20387;-82
2024/02/25 01:34:06;;;;;;;17.77;13.55;;;6.50;95.00;;;;;;4980161;28;20147;-80
2024/02/25 01:36:31;;;;;;;14.77;12.40;;;6.50;94.90;;;;;;4973447;28;20042;-81
2024/02/25 01:38:59;;;;;;;16.58;13.27;;;6.50;94.80;;;;;;4980073;28;20447;-81
2024/02/25 01:41:25;;;;;;;16.30;11.52;;;6.50;94.90;;;;;;4978378;28;20064;-83
2024/02/25 01:43:51;;;;;;;14.32;11.48;;;6.60;94.80;;;;;;4979312;28;20027;-81
2024/02/25 01:46:17;;;;;;;14.32;12.00;;;6.50;94.70;;;;;;4971479;28;20393;-80
2024/02/25 01:48:45;;;;;;;14.57;11.27;;;6.50;94.70;;;;;;4975771;28;20033;-84
2024/02/25 01:51:11;;;;;;;14.85;11.20;;;6.50;94.70;;;;;;4975763;28;20042;-84
2024/02/25 01:53:37;;;;;;;16.23;12.32;;;6.60;94.80;;;;;;4978538;28;20471;-83
2024/02/25 01:56:04;;;;;;;15.98;12.50;;;6.50;94.80;;;;;;4974419;28;20473;-84
2024/02/25 01:58:30;;;;;;;14.80;11.48;;;6.60;94.90;;;;;;4978684;28;20473;-83
2024/02/25 02:00:56;;;;;;;13.68;11.23;;;6.60;94.80;;;;;;4966813;28;20039;-84
2024/02/25 02:03:22;;;;;;;13.73;10.35;;;6.60;94.80;;;;;;4969320;28;20043;-80
2024/02/25 02:05:47;;;;;;;13.70;10.57;;;6.60;94.80;;;;;;4952824;28;20026;-83
2024/02/25 02:08:13;;;;;;;15.27;11.18;;;6.60;94.70;;;;;;4953129;28;20402;-83
2024/02/25 02:10:38;;;;;;;13.40;10.43;;;6.60;94.70;;;;;;4967316;28;20112;-84
2024/02/25 02:13:05;;;;;;;13.77;10.73;;;6.50;94.70;;;;;;4973860;28;20147;-82
2024/02/25 02:15:30;;;;;;;16.08;11.15;;;6.60;94.60;;;;;;4964341;28;20038;-80
2024/02/25 02:17:56;;;;;;;13.93;10.23;;;6.60;94.60;;;;;;4980437;28;20027;-81
2024/02/25 02:20:22;;;;;;;13.48;10.68;;;6.60;94.60;;;;;;4977367;28;20026;-83
2024/02/25 02:22:48;;;;;;;15.13;10.63;;;6.60;94.60;;;;;;4979011;28;20385;-82
2024/02/25 02:25:15;;;;;;;13.30;10.32;;;6.60;94.70;;;;;;4976950;28;20046;-82
2024/02/25 02:27:43;;;;;;;15.05;10.05;;;6.60;94.60;;;;;;4978614;28;20029;-82
2024/02/25 02:30:10;;;;;;;13.35;9.75;;;6.50;94.60;;;;;;4977377;28;20477;-81
2024/02/25 02:32:36;;;;;;;12.43;9.65;;;6.60;94.70;;;;;;4979170;28;20022;-83
2024/02/25 02:35:02;;;;;;;14.02;10.40;;;6.60;94.70;;;;;;4973316;28;20050;-83
2024/02/25 02:37:29;;;;;;;15.07;9.98;;;6.60;94.70;;;;;;4975043;28;20516;-81
2024/02/25 02:39:54;;;;;;;13.10;10.15;;;6.60;94.70;;;;;;4976171;28;20357;-83
2024/02/25 02:42:20;;;;;;;13.07;9.82;;;6.50;94.70;;;;;;4961434;28;20365;-81
2024/02/25 02:44:50;;;;;;;14.38;10.02;;;6.50;94.80;;;;;;4954586;28;20035;-81
2024/02/25 02:47:17;;;;;;;13.27;9.70;;;6.60;94.80;;;;;;4989212;28;20524;-83
2024/02/25 02:49:43;;;;;;;13.15;9.23;;;6.60;94.80;;;;;;4970344;28;20472;-84
2024/02/25 02:52:09;;;;;;;15.65;9.40;;;6.60;94.70;;;;;;4974544;28;20031;-83
2024/02/25 02:54:36;;;;;;;12.93;9.30;;;6.50;94.70;;;;;;4976822;28;20048;-83
2024/02/25 02:57:02;;;;;;;14.13;8.43;;;6.50;94.70;;;;;;4975766;28;20042;-79
2024/02/25 02:59:28;;;;;;;11.43;8.60;;;6.50;94.70;;;;;;4978243;28;20035;-83
2024/02/25 03:01:53;;;;;;;12.95;8.88;;;6.50;94.70;;;;;;4962307;28;20089;-84
2024/02/25 03:04:20;;;;;;;10.32;7.85;;;6.50;94.70;;;;;;4958603;28;20406;-81
2024/02/25 03:06:46;;;;;;;12.00;7.78;;;6.50;94.70;;;;;;4959272;28;20053;-82
2024/02/25 03:09:12;;;;;;;14.48;8.10;;;6.50;94.60;;;;;;4961871;28;20027;-81
2024/02/25 03:11:39;;;;;;;12.55;8.32;;;6.60;94.60;;;;;;4968332;28;20096;-82
2024/02/25 03:14:04;;;;;;;12.68;8.43;;;6.50;94.60;;;;;;4977004;28;20038;-83
2024/02/25 03:16:30;;;;;;;11.90;8.15;;;6.50;94.70;;;;;;4973723;28;20143;-83
2024/02/25 03:18:56;;;;;;;14.18;8.63;;;6.50;94.90;;;;;;4977231;28;21628;-82
2024/02/25 03:21:22;;;;;;;12.02;7.70;;;6.50;94.90;;;;;;4973898;28;20655;-83
2024/02/25 03:23:47;;;;;;;11.68;8.68;;;6.50;94.90;;;;;;4976124;28;20059;-80
2024/02/25 03:26:20;;;;;;;12.30;8.48;;;6.50;94.90;;;;;;4975650;28;20630;-82
2024/02/25 03:28:46;;;;;;;13.50;8.80;;;6.50;94.80;;;;;;4975315;28;20030;-80
2024/02/25 03:31:12;;;;;;;14.27;8.15;;;6.50;94.90;;;;;;4961794;28;20469;-81
2024/02/25 03:33:39;;;;;;;13.73;7.97;;;6.50;94.90;;;;;;4972153;28;20033;-83
2024/02/25 03:36:05;;;;;;;11.45;7.95;;;6.50;94.80;;;;;;4969969;28;20042;-81
2024/02/25 03:38:31;;;;;;;12.95;8.30;;;6.50;94.80;;;;;;4971318;28;20325;-81
2024/02/25 03:40:56;;;;;;;12.75;7.63;;;6.50;94.80;;;;;;4977297;28;20030;-84
2024/02/25 03:43:23;;;;;;;11.55;7.40;;;6.50;94.80;;;;;;4977016;28;20141;-84
2024/02/25 03:45:48;;;;;;;11.43;8.27;;;6.40;94.70;;;;;;4974262;28;20035;-83
2024/02/25 03:48:14;;;;;;;12.18;7.45;;;6.40;94.80;;;;;;4958160;28;20031;-80
2024/02/25 03:50:40;;;;;;;12.10;7.15;;;6.50;94.90;;;;;;4966556;28;20042;-82
2024/02/25 03:53:06;;;;;;;11.30;7.45;;;6.50;94.80;;;;;;4972202;28;20019;-81
2024/02/25 03:55:32;;;;;;;12.77;8.40;;;6.50;94.50;;;;;;4972288;28;20034;-82
2024/02/25 03:57:58;;;;;;;13.93;7.43;;;6.50;94.50;;;;;;4977390;28;20027;-80
2024/02/25 04:00:24;;;;;;;10.82;7.32;;;6.40;94.40;;;;;;4975573;28;20027;-82
2024/02/25 04:02:50;;;;;;;11.50;7.22;;;6.40;94.50;;;;;;4977195;28;20423;-83
2024/02/25 04:05:17;;;;;;;12.13;7.35;;;6.40;94.50;;;;;;4973759;28;20107;-80
2024/02/25 04:07:44;;;;;;;11.77;6.90;;;6.40;94.40;;;;;;4981397;28;20299;-83
2024/02/25 04:10:10;;;;;;;10.77;6.90;;;6.40;94.50;;;;;;4982055;28;20034;-82
2024/02/25 04:12:39;;;;;;;11.80;7.70;;;6.40;94.50;;;;;;4978615;28;20472;-81
2024/02/25 04:15:06;;;;;;;13.75;7.53;;;6.40;94.40;;;;;;4973677;28;20038;-81
2024/02/25 04:17:33;;;;;;;12.15;7.25;;;6.40;94.50;;;;;;4979064;28;20041;-81
2024/02/25 04:20:00;;;;;;;12.80;7.65;;;6.40;94.40;;;;;;4973233;28;20121;-82
2024/02/25 04:22:25;;;;;;;11.23;7.07;;;6.30;94.40;;;;;;4976894;28;20085;-83
2024/02/25 04:24:51;;;;;;;10.68;6.70;;;6.30;94.30;;;;;;4969788;28;20365;-82
2024/02/25 04:27:20;;;;;;;11.75;7.53;;;6.20;94.30;;;;;;4979252;28;20050;-82
2024/02/25 04:29:46;;;;;;;13.55;6.93;;;6.10;94.30;;;;;;4975811;28;20042;-84
2024/02/25 04:32:13;;;;;;;10.80;7.32;;;6.10;94.30;;;;;;4977802;28;20385;-81
2024/02/25 04:34:39;;;;;;;12.02;7.07;;;6.10;94.40;;;;;;4972525;28;20073;-83
2024/02/25 04:37:04;;;;;;;13.05;6.80;;;6.10;94.40;;;;;;4976984;28;20038;-81
2024/02/25 04:39:30;;;;;;;10.30;6.85;;;6.10;94.40;;;;;;4973016;28;20236;-82
2024/02/25 04:41:56;;;;;;;10.88;6.80;;;6.10;94.40;;;;;;4977372;28;20504;-79
2024/02/25 04:44:23;;;;;;;13.13;7.38;;;6.10;94.40;;;;;;4976305;28;20224;-81
2024/02/25 04:46:48;;;;;;;11.80;6.95;;;6.10;94.50;;;;;;4978398;28;20125;-79
2024/02/25 04:49:16;;;;;;;11.60;6.30;;;6.10;94.50;;;;;;4977223;28;20101;-80
2024/02/25 04:51:43;;;;;;;11.90;7.00;;;6.00;94.50;;;;;;4972893;28;20416;-80
2024/02/25 04:54:09;;;;;;;9.68;6.60;;;5.90;94.50;;;;;;4977386;28;20278;-79
2024/02/25 04:56:38;;;;;;;13.73;6.28;;;5.90;94.50;;;;;;4978988;28;20488;-77
2024/02/25 04:59:04;;;;;;;12.68;7.15;;;5.80;94.50;;;;;;4962332;28;20019;-83
2024/02/25 05:01:29;;;;;;;9.32;6.68;;;5.80;94.60;;;;;;4959109;28;20102;-79
2024/02/25 05:03:55;;;;;;;12.45;7.18;;;5.80;94.70;;;;;;4961422;28;20034;-79
2024/02/25 05:06:21;;;;;;;11.73;6.82;;;5.80;94.80;;;;;;4984348;28;20437;-77
2024/02/25 05:08:46;;;;;;;12.05;7.60;;;5.70;94.80;;;;;;5009713;28;20125;-77
2024/02/25 05:11:12;;;;;;;12.85;7.65;;;5.60;94.80;;;;;;5005971;28;20268;-78
2024/02/25 05:13:38;;;;;;;11.27;7.05;;;5.60;95.00;;;;;;4996083;28;20026;-81
2024/02/25 05:16:07;;;;;;;12.73;8.70;;;5.60;95.00;;;;;;4978594;28;20033;-81
2024/02/25 05:18:33;;;;;;;11.05;7.80;;;5.50;95.10;;;;;;4981979;28;20021;-82
2024/02/25 05:21:02;;;;;;;14.30;7.60;;;5.50;95.10;;;;;;4979344;28;20465;-82
2024/02/25 05:23:28;;;;;;;14.38;8.05;;;5.40;95.10;;;;;;4974605;28;20037;-82
2024/02/25 05:25:54;;;;;;;12.43;7.97;;;5.40;95.20;;;;;;4976557;28;20396;-81
2024/02/25 05:28:20;;;;;;;12.27;8.40;;;5.30;95.30;;;;;;4979608;28;20493;-80
2024/02/25 05:30:45;;;;;;;11.27;8.70;;;5.30;95.40;;;;;;4975749;28;20027;-79
2024/02/25 05:33:11;;;;;;;13.65;9.50;;;5.30;95.40;;;;;;4975891;28;20350;-79
2024/02/25 05:35:39;;;;;;;14.50;9.10;;;5.30;95.50;;;;;;4976168;28;20058;-80
2024/02/25 05:38:04;;;;;;;11.30;8.18;;;5.20;95.40;;;;;;4975171;28;20022;-80
2024/02/25 05:40:30;;;;;;;13.00;8.18;;;5.10;95.60;;;;;;4973786;28;20042;-79
2024/02/25 05:42:56;;;;;;;12.77;8.88;;;5.10;95.60;;;;;;4976680;28;20022;-79
2024/02/25 05:45:22;;;;;;;12.70;8.45;;;5.10;95.70;;;;;;4975641;28;20042;-83
2024/02/25 05:47:47;;;;;;;14.98;9.20;;;5.10;95.70;;;;;;4975945;28;20022;-81
2024/02/25 05:50:13;;;;;;;12.63;8.45;;;5.10;95.80;;;;;;4975095;28;20066;-80
2024/02/25 05:52:39;;;;;;;12.57;8.93;;;5.10;95.80;;;;;;4976871;28;20441;-79
2024/02/25 05:55:05;;;;;;;12.90;8.60;;;5.10;95.90;;;;;;4990204;28;20065;-81
2024/02/25 05:57:31;;;;;;;13.98;9.90;;;5.10;95.80;;;;;;4977878;28;20065;-82
2024/02/25 05:59:57;;;;;;;16.80;9.05;;;5.10;95.80;;;;;;4974538;28;20596;-78
2024/02/25 06:02:23;;;;;;;13.85;9.25;;;5.10;95.80;;;;;;4973550;28;20053;-78
2024/02/25 06:04:49;;;;;;;15.50;9.02;;;5.10;95.90;;;;;;4971923;28;20062;-80
2024/02/25 06:07:14;;;;;;;15.43;9.35;;;5.10;96.00;;;;;;4973487;28;20385;-80
2024/02/25 06:09:40;;;;;;;13.45;9.15;;;5.10;95.90;;;;;;4955430;28;20544;-82
2024/02/25 06:12:06;;;;;;;13.80;9.15;;;5.10;96.00;;;;;;4953215;28;20043;-79
2024/02/25 06:14:32;;;;;;;13.77;9.45;;;5.10;95.90;;;;;;4959070;28;20035;-80
2024/02/25 06:16:57;;;;;;;12.85;8.88;;;5.10;96.00;;;;;;4971493;28;20393;-81
2024/02/25 06:19:23;;;;;;;13.20;8.80;;;5.10;96.00;;;;;;4971986;28;20380;-79
2024/02/25 06:21:48;;;;;;;17.60;9.95;;;5.10;96.10;;;;;;4974639;28;20030;-78
2024/02/25 06:24:14;;;;;;;16.92;9.93;;;5.10;96.10;;;;;;4975617;28;20026;-81
2024/02/25 06:26:44;;;;;;;15.55;9.88;;;5.20;96.20;;;;;;4974292;28;20482;-81
2024/02/25 06:29:10;;;;;;;14.95;9.57;;;5.20;96.20;;;;;;4957328;28;20609;-81
2024/02/25 06:31:35;;;;;;;15.30;9.75;;;5.20;96.20;;;;;;4972883;28;20105;-80
2024/02/25 06:34:01;;;;;;;13.27;8.48;;;5.30;96.20;;;;;;4977145;28;20435;-82
2024/02/25 06:36:27;;;;;;;15.43;8.65;;;5.40;96.20;;;;;;4971072;28;20042;-83
2024/02/25 06:38:52;;;;;;;15.13;7.43;;;5.40;96.20;;;;;;4978788;28;20034;-80
2024/02/25 06:41:22;;;;;;;15.80;8.07;;;5.50;96.10;;;;;;4975198;28;20339;-82
2024/02/25 06:43:49;;;;;;;11.50;6.93;;;5.60;96.20;;;;;;4975128;28;20023;-80
2024/02/25 06:46:15;;;;;;;12.13;7.57;;;5.60;96.20;;;;;;4978404;28;20107;-81
2024/02/25 06:48:41;;;;;;;13.85;7.47;;;5.60;96.30;;;;;;4979256;28;20022;-81
2024/02/25 06:51:06;;;;;;;9.88;6.47;;;5.60;96.20;;;;;;4975403;28;20109;-81
2024/02/25 06:53:33;;;;;;;11.80;6.40;;;5.70;96.10;;;;;;4975885;28;20121;-82
2024/02/25 06:55:59;;;;;;;12.32;6.40;;;5.70;96.10;;;;;;4966758;28;20027;-83
2024/02/25 06:58:25;;;;;;;11.73;6.43;;;5.80;96.10;;;;;;4957990;28;20086;-83
2024/02/25 07:00:51;;;;;;;12.65;6.88;;;5.70;96.10;;;;;;4962647;28;20027;-82
2024/02/25 07:03:16;;;;;;;12.27;6.85;;;5.80;96.10;;;;;;4957228;28;20442;-83
2024/02/25 07:05:43;;;;;;;13.45;7.40;;;5.80;96.00;;;;;;4961159;28;20038;-80
2024/02/25 07:08:09;;;;;;;12.50;6.47;;;5.80;95.90;;;;;;4972929;28;20540;-83
2024/02/25 07:10:34;;;;;;;12.73;6.45;;;5.80;95.90;;;;;;4969074;28;20074;-82
2024/02/25 07:13:00;;;;;;;11.10;7.18;;;5.90;95.90;;;;;;4975493;28;20627;-81
2024/02/25 07:15:26;;;;;;;15.00;6.78;;;5.90;95.80;;;;;;4973235;28;20038;-84
2024/02/25 07:17:53;;;;;;;16.33;6.53;;;5.90;95.70;;;;;;4971685;28;20022;-81
2024/02/25 07:20:19;;;;;;;14.10;6.53;;;5.90;95.70;;;;;;4972950;28;20026;-83
2024/02/25 07:22:45;;;;;;;15.85;6.50;;;5.90;95.70;;;;;;4977124;28;20026;-83
2024/02/25 07:25:11;;;;;;;13.73;6.85;;;6.00;95.60;;;;;;4974176;28;20489;-74
2024/02/25 07:27:36;;;;;;;13.45;5.97;;;6.00;95.50;;;;;;4975578;28;20583;-74
2024/02/25 07:30:03;;;;;;;15.38;5.60;;;6.00;95.40;;;;;;4973013;28;20034;-73
2024/02/25 07:32:28;;;;;;;12.38;5.57;;;5.90;95.30;;;;;;4990745;28;20018;-73
2024/02/25 07:34:54;;;;;;;10.45;5.97;;;6.00;95.30;;;;;;4974498;28;20101;-74
2024/02/25 07:37:20;;;;;;;13.18;5.72;;;5.90;95.30;;;;;;4971742;28;20014;-74
2024/02/25 07:39:46;;;;;;;13.65;6.13;;;5.90;95.20;;;;;;4973864;28;20042;-72
2024/02/25 07:42:12;;;;;;;11.05;5.88;;;5.90;95.30;;;;;;4975639;28;20479;-73
2024/02/25 07:44:37;;;;;;;11.18;5.25;;;5.90;95.30;;;;;;4973106;28;20493;-73
2024/02/25 07:47:03;;;;;;;11.48;5.28;;;5.90;95.20;;;;;;4973980;28;20132;-73
2024/02/25 07:49:29;;;;;;;10.13;4.93;;;5.90;95.30;;;;;;4972057;28;20400;-74
2024/02/25 07:51:55;;;;;;;8.57;4.50;;;5.90;95.30;;;;;;4972777;28;20042;-74
2024/02/25 07:54:21;;;;;;;10.13;4.88;;;5.90;95.20;;;;;;4972923;28;20019;-74
2024/02/25 07:56:47;;;;;;;9.85;5.07;;;6.00;95.30;;;;;;4975608;28;20092;-75
2024/02/25 07:59:13;;;;;;;12.50;5.85;;;6.00;95.30;;;;;;4974700;28;20030;-74
2024/02/25 08:01:38;;;;;;;11.05;4.60;;;6.10;95.30;;;;;;4973258;28;20050;-73
2024/02/25 08:04:04;;;;;;;11.35;4.63;;;6.10;95.30;;;;;;4953737;28;20122;-74
2024/02/25 08:06:31;;;;;;;9.02;4.63;;;6.10;95.30;;;;;;4973897;28;20038;-75
2024/02/25 08:08:57;;;;;;;8.45;4.15;;;6.20;95.30;;;;;;4974378;28;20034;-73
2024/02/25 08:11:23;;;;;;;10.07;4.50;;;6.30;95.30;;;;;;4975440;28;20037;-74
2024/02/25 08:13:48;;;;;;;7.30;4.13;;;6.50;95.10;;;;;;4976554;28;20037;-75
2024/02/25 08:16:14;;;;;;;7.55;4.25;;;6.50;94.90;;;;;;4973510;28;20045;-74
2024/02/25 08:18:48;;;;;;;8.70;4.70;;;6.60;94.80;;;;;;4976631;28;20022;-74
2024/02/25 08:21:14;;;;;;;7.55;4.32;;;6.60;94.60;;;;;;4970268;28;20532;-74
2024/02/25 08:23:41;;;;;;;8.82;4.57;;;6.80;94.60;;;;;;4977016;28;20038;-73
2024/02/25 08:26:07;;;;;;;12.48;5.13;;;6.80;94.10;;;;;;4980395;28;20041;-74
2024/02/25 08:28:34;;;;;;;13.23;5.05;;;6.90;94.10;;;;;;4977197;28;20057;-75
2024/02/25 08:30:59;;;;;;;10.75;5.07;;;7.10;93.90;;;;;;4971880;28;20041;-74
2024/02/25 08:33:25;;;;;;;10.60;5.20;;;7.10;93.40;;;;;;4977643;28;20030;-74
2024/02/25 08:35:51;;;;;;;11.77;5.78;;;7.20;93.20;;;;;;4974190;28;20489;-73
2024/02/25 08:38:16;;;;;;;9.80;5.68;;;7.30;93.00;;;;;;4979928;28;20064;-75
2024/02/25 08:40:42;;;;;;;11.35;5.85;;;7.40;92.80;;;;;;4974637;28;20495;-74
2024/02/25 08:43:07;;;;;;;12.20;5.85;;;7.60;92.80;;;;;;4978176;28;20030;-73
2024/02/25 08:45:33;;;;;;;11.48;6.22;;;7.50;92.30;;;;;;4968807;28;20157;-73
2024/02/25 08:47:58;;;;;;;11.63;6.68;;;7.60;92.20;;;;;;4959459;28;20102;-73
2024/02/25 08:50:26;;;;;;;13.13;6.45;;;7.70;91.90;;;;;;4969764;28;20040;-73
2024/02/25 08:52:52;;;;;;;10.90;6.55;;;7.70;91.90;;;;;;4978141;28;20034;-75
2024/02/25 08:55:17;;;;;;;10.95;6.45;;;7.90;91.70;;;;;;4975365;28;20053;-75
2024/02/25 08:57:43;;;;;;;12.57;6.80;;;7.60;91.10;;;;;;4977730;28;20035;-74
2024/02/25 09:00:09;;;;;;;12.68;7.13;;;7.60;91.40;;;;;;4978758;28;20054;-75
2024/02/25 09:02:36;;;;;;;10.70;6.53;;;7.60;91.50;;;;;;4975030;28;20194;-74
2024/02/25 09:05:02;;;;;;;11.88;8.57;;;7.60;91.20;;;;;;4976296;28;20046;-74
2024/02/25 09:07:29;;;;;;;12.00;7.85;;;7.50;91.30;;;;;;4979349;28;20033;-73
2024/02/25 09:09:55;;;;;;;15.45;9.27;;;7.40;91.70;;;;;;4976737;28;20049;-74
2024/02/25 09:12:21;;;;;;;13.85;9.60;;;7.40;91.80;;;;;;4978388;28;20022;-74
2024/02/25 09:14:47;;;;;;;17.95;11.55;;;7.40;92.00;;;;;;4973089;28;20443;-74
2024/02/25 09:17:12;;;;;;;17.77;12.00;;;7.30;92.00;;;;;;4968409;28;20571;-74
2024/02/25 09:19:39;;;;;;;20.73;14.40;;;7.30;92.20;;;;;;4978097;28;20169;-74
2024/02/25 09:22:05;;;;;;;20.83;14.65;;;7.40;92.30;;;;;;4959611;28;20039;-77
2024/02/25 09:24:31;;;;;;;17.20;11.20;;;7.50;92.20;;;;;;4959424;28;20069;-73
2024/02/25 09:26:56;;;;;;;15.90;11.00;;;7.40;91.90;;;;;;4973193;28;20050;-74
2024/02/25 09:29:22;;;;;;;16.17;10.48;;;7.30;91.80;;;;;;4977089;28;20509;-74
2024/02/25 09:31:48;;;;;;;14.93;11.73;;;7.30;91.70;;;;;;4974755;28;20117;-74
2024/02/25 09:34:14;;;;;;;17.42;12.52;;;7.40;91.40;;;;;;4979810;28;20030;-74
2024/02/25 09:36:44;;;;;;;17.63;13.32;;;7.30;91.20;;;;;;4976116;28;20040;-74
2024/02/25 09:39:10;;;;;;;16.90;13.65;;;7.30;91.30;;;;;;4977485;28;20022;-74
2024/02/25 09:41:37;;;;;;;17.83;12.52;;;7.40;91.30;;;;;;4976382;28;20030;-74
2024/02/25 09:44:04;;;;;;;18.65;12.48;;;7.40;91.00;;;;;;4980059;28;20033;-74
2024/02/25 09:46:32;;;;;;;21.70;12.50;;;7.50;91.20;;;;;;4976525;28;20053;-75
2024/02/25 09:48:58;;;;;;;18.58;11.85;;;7.50;90.80;;;;;;4974068;28;20357;-74
2024/02/25 09:51:24;;;;;;;22.50;14.00;;;7.40;90.50;;;;;;4967238;28;20457;-74
2024/02/25 09:53:52;;;;;;;19.35;12.50;;;7.40;90.50;;;;;;4979270;28;20049;-74
2024/02/25 09:56:18;;;;;;;19.45;13.55;;;7.40;90.30;;;;;;4976736;28;20056;-74
2024/02/25 09:58:44;;;;;;;18.25;12.85;;;7.50;90.40;;;;;;4992870;28;20018;-75
2024/02/25 10:01:10;;;;;;;20.60;13.15;;;7.50;90.50;;;;;;4976507;28;20539;-74
2024/02/25 10:03:39;;;;;;;20.75;13.35;;;7.50;90.50;;;;;;4974038;28;20054;-76
2024/02/25 10:06:05;;;;;;;20.48;12.93;;;7.60;90.10;;;;;;4978191;28;20556;-75
2024/02/25 10:08:47;;;;;;;16.60;10.98;;;7.60;90.00;;;;;;4978768;28;20030;-75
2024/02/25 10:11:13;;;;;;;16.13;10.90;;;7.50;89.70;;;;;;4956448;28;20049;-74
2024/02/25 10:13:42;;;;;;;17.17;10.48;;;7.60;90.10;;;;;;4956945;28;20469;-74
2024/02/25 10:16:23;;;;;;;16.42;10.40;;;7.80;89.60;;;;;;4963663;28;20038;-73
2024/02/25 10:18:50;;;;;;;17.38;10.18;;;7.80;89.30;;;;;;4975362;28;20238;-75
2024/02/25 10:21:16;;;;;;;18.65;11.80;;;7.90;88.50;;;;;;4977587;28;20042;-74
2024/02/25 10:23:42;;;;;;;26.80;20.98;;;7.80;88.50;;;;;;4977045;28;20357;-73
2024/02/25 10:26:17;;;;;;;19.60;13.73;;;7.80;88.70;;;;;;4973954;28;20070;-72
2024/02/25 10:28:43;;;;;;;21.13;13.35;;;7.80;88.80;;;;;;4985174;28;20035;-74
2024/02/25 10:31:11;;;;;;;18.45;13.07;;;7.80;89.00;;;;;;4955369;28;20074;-73
2024/02/25 10:33:38;;;;;;;15.55;12.52;;;7.70;89.20;;;;;;4956780;28;20770;-74
2024/02/25 10:36:09;;;;;;;20.30;13.13;;;7.80;89.40;;;;;;4969592;28;20365;-73
2024/02/25 10:38:39;;;;;;;15.98;12.25;;;7.90;89.30;;;;;;4953470;28;20056;-73
2024/02/25 10:41:06;;;;;;;16.15;12.43;;;8.10;89.10;;;;;;4954489;28;20130;-73
2024/02/25 10:43:34;;;;;;;16.58;12.32;;;8.20;89.10;;;;;;4950440;28;20833;-75
2024/02/25 10:46:05;;;;;;;18.10;12.77;;;8.30;88.70;;;;;;4972827;28;20038;-75
2024/02/25 10:48:31;;;;;;;18.60;12.02;;;8.30;88.60;;;;;;4982190;28;20030;-74
2024/02/25 10:50:58;;;;;;;20.95;11.50;;;8.30;88.30;;;;;;4980539;28;20031;-74
2024/02/25 10:53:28;;;;;;;22.83;14.68;;;8.30;88.60;;;;;;4976050;28;20034;-74
2024/02/25 10:55:58;;;;;;;16.38;13.60;;;8.40;88.90;;;;;;4969791;28;20566;-72
2024/02/25 10:58:25;;;;;;;18.95;13.52;;;8.40;88.70;;;;;;4994302;28;20378;-72
2024/02/25 11:00:52;;;;;;;25.35;13.52;;;8.50;88.20;;;;;;4974752;28;20046;-71
2024/02/25 11:03:19;;;;;;;20.33;12.18;;;8.60;88.40;;;;;;4974847;28;20445;-72
2024/02/25 11:05:45;;;;;;;18.45;11.63;;;8.70;88.20;;;;;;4971973;28;20031;-73
2024/02/25 11:08:11;;;;;;;17.17;11.63;;;8.80;87.90;;;;;;4975724;28;20053;-76
2024/02/25 11:10:37;;;;;;;16.05;10.55;;;9.00;87.70;;;;;;4975495;28;20401;-75
2024/02/25 11:13:03;;;;;;;19.40;10.35;;;9.00;87.50;;;;;;4978891;28;20100;-74
2024/02/25 11:15:32;;;;;;;16.23;10.60;;;9.00;87.00;;;;;;4974638;28;20112;-74
2024/02/25 11:18:00;;;;;;;15.80;11.65;;;9.10;87.00;;;;;;4977620;28;20481;-75
2024/02/25 11:20:28;;;;;;;18.35;12.05;;;9.10;86.80;;;;;;4976438;28;20035;-74
2024/02/25 11:22:55;;;;;;;17.33;12.02;;;9.10;86.50;;;;;;4975233;28;20390;-74
2024/02/25 11:25:26;;;;;;;20.90;12.77;;;9.20;86.10;;;;;;4975052;28;20049;-75
2024/02/25 11:28:03;;;;;;;30.13;20.65;;;9.50;85.80;;;;;;4977345;28;20022;-74
2024/02/25 11:30:45;;;;;;;20.42;12.23;;;9.50;85.30;;;;;;4974092;28;20203;-75
2024/02/25 11:33:23;;;;;;;15.52;13.57;;;9.70;84.80;;;;;;4976405;28;20066;-75
2024/02/25 11:35:57;;;;;;;17.20;11.70;;;9.80;83.80;;;;;;4974634;28;20070;-75
2024/02/25 11:38:26;;;;;;;18.80;10.88;;;9.80;83.60;;;;;;4976121;28;20019;-75
2024/02/25 11:40:55;;;;;;;18.23;9.18;;;9.90;83.30;;;;;;4974697;28;20110;-73
2024/02/25 11:43:22;;;;;;;19.52;8.63;;;9.80;82.20;;;;;;4971839;28;20169;-74
2024/02/25 11:45:48;;;;;;;17.40;7.82;;;9.80;82.80;;;;;;4967957;28;20051;-73
2024/02/25 11:48:14;;;;;;;14.75;7.82;;;9.80;82.60;;;;;;4971278;28;20023;-74
2024/02/25 11:50:40;;;;;;;14.70;7.43;;;9.80;82.80;;;;;;4971137;28;20038;-74
2024/02/25 11:53:06;;;;;;;16.45;7.03;;;9.80;82.70;;;;;;4973970;28;20031;-76
2024/02/25 11:55:32;;;;;;;11.40;6.25;;;9.90;82.20;;;;;;4971557;28;20026;-75
2024/02/25 11:57:59;;;;;;;13.55;6.72;;;10.10;82.50;;;;;;4974768;28;20338;-75
2024/02/25 12:00:25;;;;;;;16.80;8.02;;;9.90;81.50;;;;;;4969827;28;20142;-74
2024/02/25 12:02:51;;;;;;;13.30;6.65;;;9.80;81.70;;;;;;4974816;28;20030;-74
2024/02/25 12:05:18;;;;;;;14.07;7.15;;;9.80;81.30;;;;;;4971609;28;20061;-74
2024/02/25 12:07:54;;;;;;;15.38;6.93;;;9.80;81.50;;;;;;4973489;28;20623;-73
2024/02/25 12:10:22;;;;;;;12.02;6.32;;;9.90;81.70;;;;;;4968908;28;20035;-73
2024/02/25 12:12:47;;;;;;;16.63;6.93;;;9.80;81.40;;;;;;4972478;28;20030;-76
2024/02/25 12:15:13;;;;;;;17.02;8.18;;;9.80;81.80;;;;;;4973250;28;20049;-76
2024/02/25 12:17:39;;;;;;;20.02;10.05;;;9.80;82.20;;;;;;4974414;28;20026;-72
2024/02/25 12:20:06;;;;;;;12.18;6.72;;;9.80;82.20;;;;;;4972320;28;20053;-76
2024/02/25 12:22:33;;;;;;;13.85;7.28;;;9.80;82.30;;;;;;4976115;28;20572;-75
2024/02/25 12:25:00;;;;;;;16.55;6.25;;;9.90;82.30;;;;;;4972878;28;20057;-76
2024/02/25 12:27:26;;;;;;;14.93;6.28;;;9.80;82.60;;;;;;4973521;28;20022;-72
2024/02/25 12:29:52;;;;;;;15.38;5.68;;;9.90;82.70;;;;;;4970320;28;20511;-76
2024/02/25 12:32:20;;;;;;;11.32;5.03;;;10.00;83.20;;;;;;4973313;28;20376;-73
2024/02/25 12:34:46;;;;;;;10.77;4.75;;;10.40;83.10;;;;;;4972755;28;20037;-76
2024/02/25 12:37:15;;;;;;;11.82;4.60;;;10.80;81.40;;;;;;4973504;28;20030;-74
2024/02/25 12:39:42;;;;;;;12.02;4.18;;;11.10;80.20;;;;;;4970096;28;20027;-76